createdAt,value
2017-05-22T00:00:38.020Z,63.35
2017-05-22T00:01:18.918Z,64.12
2017-05-22T00:01:59.807Z,63.93
2017-05-22T00:02:40.691Z,62.97
2017-05-22T00:03:21.573Z,62.68
2017-05-22T00:04:02.458Z,62.2
2017-05-22T00:04:43.344Z,63.16
2017-05-22T00:05:24.245Z,63.93
2017-05-22T00:06:05.133Z,63.73
2017-05-22T00:06:46.046Z,63.45
2017-05-22T00:07:26.950Z,64.02
2017-05-22T00:08:07.848Z,64.12
2017-05-22T00:08:48.740Z,63.64
2017-05-22T00:09:29.622Z,63.54
2017-05-22T00:10:10.514Z,63.73
2017-05-22T00:10:51.413Z,63.45
2017-05-22T00:11:32.309Z,63.54
2017-05-22T00:12:13.200Z,63.73
2017-05-22T00:12:54.079Z,63.64
2017-05-22T00:13:34.972Z,64.31
2017-05-22T00:14:15.865Z,64.22
2017-05-22T00:14:56.769Z,63.26
2017-05-22T00:15:37.655Z,63.64
2017-05-22T00:16:18.567Z,63.93
2017-05-22T00:16:59.448Z,62.97
2017-05-22T00:17:40.336Z,63.35
2017-05-22T00:18:21.229Z,63.54
2017-05-22T00:19:02.122Z,63.35
2017-05-22T00:19:43.005Z,63.45
2017-05-22T00:20:23.904Z,63.93
2017-05-22T00:21:04.779Z,63.45
2017-05-22T00:21:45.674Z,64.5
2017-05-22T00:22:26.568Z,64.98
2017-05-22T00:23:07.477Z,64.59
2017-05-22T00:23:48.350Z,64.69
2017-05-22T00:24:29.243Z,63.73
2017-05-22T00:25:10.136Z,63.54
2017-05-22T00:25:51.020Z,63.54
2017-05-22T00:26:31.916Z,63.35
2017-05-22T00:27:12.807Z,63.16
2017-05-22T00:27:53.702Z,63.83
2017-05-22T00:28:34.595Z,63.83
2017-05-22T00:29:15.478Z,63.45
2017-05-22T00:29:56.378Z,64.31
2017-05-22T00:30:37.272Z,64.22
2017-05-22T00:31:18.158Z,63.64
2017-05-22T00:31:59.042Z,63.73
2017-05-22T00:32:39.947Z,64.98
2017-05-22T00:33:20.831Z,65.55
2017-05-22T00:34:01.720Z,64.79
2017-05-22T00:34:42.621Z,63.83
2017-05-22T00:35:23.529Z,63.93
2017-05-22T00:36:04.417Z,64.79
2017-05-22T00:36:45.312Z,64.98
2017-05-22T00:37:26.196Z,65.84
2017-05-22T00:38:07.086Z,65.26
2017-05-22T00:38:47.989Z,64.22
2017-05-22T00:39:28.861Z,63.64
2017-05-22T00:40:09.761Z,63.64
2017-05-22T00:40:50.661Z,63.83
2017-05-22T00:41:31.545Z,64.69
2017-05-22T00:42:12.425Z,64.88
2017-05-22T00:42:53.319Z,64.59
2017-05-22T00:43:34.212Z,65.08
2017-05-22T00:44:15.108Z,66.13
2017-05-22T00:44:56.012Z,65.45
2017-05-22T00:45:36.891Z,66.13
2017-05-22T00:46:17.782Z,65.36
2017-05-22T00:46:58.685Z,64.5
2017-05-22T00:47:39.571Z,64.69
2017-05-22T00:48:20.457Z,64.88
2017-05-22T00:49:01.353Z,65.17
2017-05-22T00:49:42.242Z,64.79
2017-05-22T00:50:23.122Z,64.4
2017-05-22T00:51:04.011Z,64.79
2017-05-22T00:51:44.902Z,64.98
2017-05-22T00:52:25.778Z,64.59
2017-05-22T00:53:06.665Z,64.88
2017-05-22T00:53:47.577Z,65.36
2017-05-22T00:54:28.443Z,64.98
2017-05-22T00:55:09.344Z,64.88
2017-05-22T00:55:50.253Z,65.84
2017-05-22T00:56:31.128Z,66.03
2017-05-22T00:57:12.020Z,65.55
2017-05-22T00:57:52.928Z,65.94
2017-05-22T00:58:33.798Z,65.81
2017-05-22T00:59:14.692Z,65.26
2017-05-22T00:59:55.583Z,65.45
2017-05-22T01:00:36.471Z,65.81
2017-05-22T01:01:17.354Z,65.74
2017-05-22T01:01:58.254Z,65.84
2017-05-22T01:02:39.155Z,66.13
2017-05-22T01:03:20.044Z,65.74
2017-05-22T01:04:00.938Z,65.81
2017-05-22T01:04:41.833Z,65.52
2017-05-22T01:05:22.727Z,65.71
2017-05-22T01:06:03.624Z,66.28
2017-05-22T01:06:44.511Z,66.09
2017-05-22T01:07:25.398Z,65.65
2017-05-22T01:08:58.675Z,66.09
2017-05-22T01:09:39.550Z,66.03
2017-05-22T01:10:20.454Z,65.65
2017-05-22T01:11:01.347Z,65.61
2017-05-22T01:11:42.250Z,65.94
2017-05-22T01:12:23.140Z,65.61
2017-05-22T01:13:04.035Z,65.65
2017-05-22T01:13:44.926Z,66.86
2017-05-22T01:14:25.825Z,68.29
2017-05-22T01:15:06.707Z,68.1
2017-05-22T01:15:47.604Z,67.91
2017-05-22T01:17:26.026Z,67.43
2017-05-22T01:18:06.905Z,66.47
2017-05-22T01:18:47.794Z,66.51
2017-05-22T01:19:28.677Z,66.32
2017-05-22T01:20:09.570Z,65.36
2017-05-22T01:20:50.519Z,66.03
2017-05-22T01:21:31.400Z,66.89
2017-05-22T01:22:12.279Z,66.13
2017-05-22T01:22:53.159Z,65.94
2017-05-22T01:23:34.050Z,66.03
2017-05-22T01:24:14.932Z,65.74
2017-05-22T01:24:55.814Z,65.94
2017-05-22T01:25:36.692Z,65.94
2017-05-22T01:26:17.586Z,66.22
2017-05-22T01:26:58.460Z,66.03
2017-05-22T01:27:39.348Z,66.03
2017-05-22T01:28:20.237Z,65.81
2017-05-22T01:29:01.137Z,66.13
2017-05-22T01:29:42.004Z,66.13
2017-05-22T01:30:22.886Z,66.03
2017-05-22T01:31:03.761Z,65.65
2017-05-22T01:31:44.658Z,66.03
2017-05-22T01:32:25.532Z,65.42
2017-05-22T01:33:06.416Z,65.33
2017-05-22T01:33:47.304Z,65.36
2017-05-22T01:34:28.219Z,65.84
2017-05-22T01:35:09.070Z,65.84
2017-05-22T01:35:50.019Z,66.03
2017-05-22T01:36:30.914Z,65.84
2017-05-22T01:37:11.804Z,66.13
2017-05-22T01:37:52.684Z,65.74
2017-05-22T01:38:33.562Z,65.84
2017-05-22T01:39:14.451Z,65.55
2017-05-22T01:39:55.335Z,65.65
2017-05-22T01:40:36.219Z,65.65
2017-05-22T01:41:17.099Z,65.55
2017-05-22T01:41:57.983Z,65.65
2017-05-22T01:42:38.871Z,65.74
2017-05-22T01:43:19.756Z,66.22
2017-05-22T01:44:00.641Z,65.55
2017-05-22T01:44:41.549Z,65.74
2017-05-22T01:45:22.458Z,65.65
2017-05-22T01:46:03.362Z,65.84
2017-05-22T01:46:44.244Z,66.03
2017-05-22T01:47:25.128Z,66.13
2017-05-22T01:48:06.022Z,65.94
2017-05-22T01:48:46.974Z,66.03
2017-05-22T01:49:27.855Z,65.84
2017-05-22T01:50:08.759Z,66.61
2017-05-22T01:50:49.648Z,66.03
2017-05-22T01:51:30.561Z,65.94
2017-05-22T01:52:11.443Z,66.32
2017-05-22T01:52:52.330Z,66.13
2017-05-22T01:53:33.225Z,66.8
2017-05-22T01:54:14.115Z,66.41
2017-05-22T01:54:55.023Z,66.03
2017-05-22T01:55:35.905Z,66.89
2017-05-22T01:56:16.787Z,67.66
2017-05-22T01:56:57.697Z,67.27
2017-05-22T01:57:38.578Z,66.13
2017-05-22T01:58:19.463Z,66.32
2017-05-22T01:59:00.351Z,65.94
2017-05-22T01:59:41.256Z,65.84
2017-05-22T02:00:22.136Z,66.13
2017-05-22T02:01:03.021Z,66.22
2017-05-22T02:01:43.912Z,65.55
2017-05-22T02:02:24.798Z,67.08
2017-05-22T02:03:05.677Z,66.7
2017-05-22T02:03:46.585Z,66.8
2017-05-22T02:04:27.464Z,67.08
2017-05-22T02:05:08.356Z,66.99
2017-05-22T02:05:49.255Z,67.37
2017-05-22T02:06:30.141Z,66.99
2017-05-22T02:07:11.032Z,66
2017-05-22T02:07:51.910Z,66.22
2017-05-22T02:08:32.797Z,66.61
2017-05-22T02:09:13.688Z,66.13
2017-05-22T02:09:54.582Z,66.03
2017-05-22T02:10:35.459Z,66.03
2017-05-22T02:11:16.425Z,67.18
2017-05-22T02:11:57.263Z,66.51
2017-05-22T02:12:38.146Z,66.61
2017-05-22T02:13:19.035Z,66.7
2017-05-22T02:14:01.644Z,66.22
2017-05-22T02:14:42.539Z,66.51
2017-05-22T02:15:23.444Z,66.61
2017-05-22T02:16:04.317Z,67.27
2017-05-22T02:16:45.220Z,66.28
2017-05-22T02:17:26.139Z,66.41
2017-05-22T02:18:07.041Z,66.13
2017-05-22T02:18:48.757Z,65.9
2017-05-22T02:19:31.629Z,66.89
2017-05-22T02:20:12.499Z,66.99
2017-05-22T02:20:53.448Z,66.7
2017-05-22T02:21:35.127Z,67.34
2017-05-22T02:22:16.030Z,67.05
2017-05-22T02:22:56.923Z,67.53
2017-05-22T02:23:39.620Z,67.05
2017-05-22T02:24:20.533Z,66.61
2017-05-22T02:25:01.415Z,66.61
2017-05-22T02:25:42.319Z,66.96
2017-05-22T02:26:23.190Z,67.24
2017-05-22T02:27:04.139Z,67.43
2017-05-22T02:27:45.034Z,67.53
2017-05-22T02:28:26.920Z,67.05
2017-05-22T02:29:07.844Z,68.01
2017-05-22T02:29:48.748Z,67.91
2017-05-22T02:30:29.665Z,68.01
2017-05-22T02:31:10.599Z,67.24
2017-05-22T02:31:51.490Z,67.34
2017-05-22T02:32:35.266Z,67.05
2017-05-22T02:33:16.150Z,68.2
2017-05-22T02:33:57.046Z,67.43
2017-05-22T02:34:37.927Z,67.72
2017-05-22T02:35:18.821Z,67.34
2017-05-22T02:35:59.731Z,66.76
2017-05-22T02:36:40.633Z,66.67
2017-05-22T02:37:21.514Z,66.47
2017-05-22T02:38:02.455Z,67.53
2017-05-22T02:38:43.367Z,67.05
2017-05-22T02:39:24.260Z,66.38
2017-05-22T02:40:05.151Z,65.52
2017-05-22T02:40:46.037Z,66
2017-05-22T02:41:26.926Z,66.76
2017-05-22T02:42:07.818Z,67.24
2017-05-22T02:42:48.707Z,67.24
2017-05-22T02:43:29.598Z,67.91
2017-05-22T02:44:10.503Z,68.39
2017-05-22T02:44:51.401Z,68.2
2017-05-22T02:45:32.303Z,68.29
2017-05-22T02:46:13.183Z,67.24
2017-05-22T02:46:54.119Z,66.38
2017-05-22T02:47:35.012Z,67.05
2017-05-22T02:48:16.633Z,68.1
2017-05-22T02:48:57.531Z,68.39
2017-05-22T02:49:38.423Z,68.29
2017-05-22T02:50:19.316Z,68.55
2017-05-22T02:51:00.226Z,68.64
2017-05-22T02:51:41.130Z,68.45
2017-05-22T02:52:22.026Z,68.55
2017-05-22T02:53:02.921Z,68.93
2017-05-22T02:53:43.810Z,69.02
2017-05-22T02:54:24.703Z,69.98
2017-05-22T02:55:05.592Z,70.56
2017-05-22T02:55:46.491Z,70.36
2017-05-22T02:56:27.401Z,70.56
2017-05-22T02:57:08.273Z,69.6
2017-05-22T02:57:49.160Z,68.64
2017-05-22T02:58:30.066Z,67.97
2017-05-22T02:59:10.951Z,67.97
2017-05-22T02:59:51.842Z,68.1
2017-05-22T03:00:32.741Z,67.24
2017-05-22T03:01:13.627Z,67.34
2017-05-22T03:01:54.513Z,67.14
2017-05-22T03:02:35.406Z,67.21
2017-05-22T03:03:16.303Z,68.64
2017-05-22T03:03:57.198Z,68.29
2017-05-22T03:04:38.100Z,68.16
2017-05-22T03:05:18.980Z,67.91
2017-05-22T03:05:59.908Z,67.05
2017-05-22T03:06:40.791Z,66.86
2017-05-22T03:07:21.679Z,67.05
2017-05-22T03:08:02.567Z,66.57
2017-05-22T03:08:43.458Z,68.39
2017-05-22T03:09:24.334Z,68.45
2017-05-22T03:10:05.236Z,67.24
2017-05-22T03:10:46.123Z,68.1
2017-05-22T03:11:27.010Z,68.1
2017-05-22T03:12:07.906Z,68.01
2017-05-22T03:12:48.794Z,68.68
2017-05-22T03:13:29.697Z,69.25
2017-05-22T03:14:10.584Z,69.12
2017-05-22T03:14:51.457Z,69.7
2017-05-22T03:15:32.352Z,69.98
2017-05-22T03:16:13.239Z,70.36
2017-05-22T03:16:54.135Z,71.03
2017-05-22T03:17:35.027Z,71.51
2017-05-22T03:18:15.919Z,71.61
2017-05-22T03:18:56.811Z,71.61
2017-05-22T03:19:37.695Z,71.42
2017-05-22T03:21:36.504Z,71.89
2017-05-22T03:22:17.385Z,72.37
2017-05-22T03:22:58.295Z,72.66
2017-05-22T03:23:39.173Z,73.9
2017-05-22T03:24:20.056Z,73.99
2017-05-22T03:25:00.953Z,73.8
2017-05-22T03:25:41.848Z,73.9
2017-05-22T03:26:22.749Z,73.71
2017-05-22T03:27:03.655Z,73.9
2017-05-22T03:27:44.545Z,74.09
2017-05-22T03:28:25.433Z,73.9
2017-05-22T03:29:06.327Z,74.48
2017-05-22T03:29:47.212Z,74.19
2017-05-22T03:30:28.088Z,74.76
2017-05-22T03:31:08.995Z,74.95
2017-05-22T03:31:49.875Z,74.85
2017-05-22T03:32:30.764Z,74.95
2017-05-22T03:33:11.664Z,74.85
2017-05-22T03:33:52.555Z,75.24
2017-05-22T03:34:33.441Z,75.34
2017-05-22T03:35:14.333Z,75.24
2017-05-22T03:35:55.215Z,75.43
2017-05-22T03:36:36.114Z,75.14
2017-05-22T03:37:17.007Z,75.1
2017-05-22T03:37:57.906Z,75.43
2017-05-22T03:38:38.788Z,75.62
2017-05-22T03:39:19.676Z,75.62
2017-05-22T03:40:00.557Z,75.62
2017-05-22T03:40:41.472Z,75.49
2017-05-22T03:41:22.371Z,75.59
2017-05-22T03:42:03.255Z,75.71
2017-05-22T03:42:44.145Z,75.34
2017-05-22T03:43:25.052Z,75.24
2017-05-22T03:44:05.928Z,75.34
2017-05-22T03:44:46.839Z,75.43
2017-05-22T03:45:27.722Z,75.91
2017-05-22T03:46:09.129Z,76.2
2017-05-22T03:46:49.530Z,75.81
2017-05-22T03:47:30.411Z,75.52
2017-05-22T03:48:11.301Z,75.71
2017-05-22T03:48:52.199Z,76.39
2017-05-22T03:49:33.081Z,76
2017-05-22T03:50:13.959Z,76
2017-05-22T03:50:54.844Z,76.1
2017-05-22T03:51:35.738Z,76.2
2017-05-22T03:52:16.630Z,76.54
2017-05-22T03:52:57.521Z,76.86
2017-05-22T03:53:38.412Z,76.57
2017-05-22T03:54:19.310Z,76.48
2017-05-22T03:55:00.216Z,76.57
2017-05-22T03:55:41.106Z,76.64
2017-05-22T03:56:21.990Z,76.67
2017-05-22T03:57:51.076Z,76.67
2017-05-22T03:58:31.970Z,76.25
2017-05-22T03:59:12.867Z,76.86
2017-05-22T03:59:53.743Z,77.34
2017-05-22T04:00:34.626Z,76.48
2017-05-22T04:01:15.546Z,76.39
2017-05-22T04:01:56.410Z,76.96
2017-05-22T04:02:37.295Z,76.64
2017-05-22T04:03:18.192Z,77.15
2017-05-22T04:03:59.081Z,77.15
2017-05-22T04:04:39.971Z,76.77
2017-05-22T04:05:20.866Z,77.34
2017-05-22T04:06:01.761Z,76.77
2017-05-22T04:06:42.647Z,75.81
2017-05-22T04:07:23.559Z,75.71
2017-05-22T04:08:04.445Z,75.34
2017-05-22T04:08:45.329Z,75.62
2017-05-22T04:09:26.219Z,75.52
2017-05-22T04:10:07.101Z,76
2017-05-22T04:10:48.049Z,76.2
2017-05-22T04:11:28.856Z,76.1
2017-05-22T04:12:09.765Z,76.2
2017-05-22T04:12:50.651Z,76.48
2017-05-22T04:13:31.539Z,76.29
2017-05-22T04:14:12.447Z,76.29
2017-05-22T04:14:53.332Z,76.77
2017-05-22T04:15:34.253Z,76.77
2017-05-22T04:16:15.178Z,77.25
2017-05-22T04:16:56.093Z,76.77
2017-05-22T04:17:36.978Z,76.77
2017-05-22T04:18:17.864Z,76.48
2017-05-22T04:18:58.769Z,77.34
2017-05-22T04:19:39.654Z,76.48
2017-05-22T04:20:20.539Z,76.67
2017-05-22T04:21:01.441Z,76.77
2017-05-22T04:21:42.385Z,76.29
2017-05-22T04:22:23.271Z,76.96
2017-05-22T04:23:04.243Z,76.67
2017-05-22T04:23:45.119Z,76.1
2017-05-22T04:24:26.016Z,75.91
2017-05-22T04:25:06.919Z,75.71
2017-05-22T04:25:47.810Z,75.81
2017-05-22T04:26:28.716Z,75.43
2017-05-22T04:27:09.583Z,75.91
2017-05-22T04:27:50.461Z,75.34
2017-05-22T04:28:31.346Z,76.39
2017-05-22T04:29:12.249Z,76.39
2017-05-22T04:29:53.138Z,76.1
2017-05-22T04:30:34.010Z,76.67
2017-05-22T04:31:14.924Z,77.15
2017-05-22T04:31:55.800Z,77.44
2017-05-22T04:32:36.719Z,77.25
2017-05-22T04:33:17.613Z,76.67
2017-05-22T04:33:58.517Z,76.2
2017-05-22T04:34:39.404Z,75.34
2017-05-22T04:35:20.293Z,75.24
2017-05-22T04:36:01.187Z,74.95
2017-05-22T04:36:42.122Z,75.05
2017-05-22T04:37:23.014Z,75.05
2017-05-22T04:38:03.912Z,75.34
2017-05-22T04:38:44.798Z,75.71
2017-05-22T04:39:25.679Z,75.05
2017-05-22T04:40:06.573Z,75.52
2017-05-22T04:40:47.504Z,75.43
2017-05-22T04:41:28.392Z,74.85
2017-05-22T04:42:09.285Z,74.95
2017-05-22T04:42:50.235Z,75.14
2017-05-22T04:43:31.125Z,75.24
2017-05-22T04:44:12.095Z,75.34
2017-05-22T04:44:52.909Z,75.43
2017-05-22T04:45:33.801Z,75.81
2017-05-22T04:46:15.252Z,75.43
2017-05-22T04:46:56.146Z,75.14
2017-05-22T04:47:37.039Z,74.95
2017-05-22T04:48:17.925Z,74.57
2017-05-22T04:48:58.811Z,74.57
2017-05-22T04:49:39.710Z,74.48
2017-05-22T04:50:20.604Z,74.57
2017-05-22T04:51:01.498Z,74.95
2017-05-22T04:51:42.410Z,74.76
2017-05-22T04:52:23.297Z,74.66
2017-05-22T04:53:04.201Z,74.76
2017-05-22T04:53:45.083Z,74.85
2017-05-22T04:54:25.962Z,74.66
2017-05-22T04:55:06.855Z,74.48
2017-05-22T04:55:47.741Z,74.09
2017-05-22T04:56:28.637Z,74.66
2017-05-22T04:57:09.520Z,73.99
2017-05-22T04:57:50.423Z,74.57
2017-05-22T04:58:31.309Z,73.99
2017-05-22T04:59:12.184Z,73.99
2017-05-22T04:59:53.085Z,73.43
2017-05-22T05:00:33.974Z,73.04
2017-05-22T05:01:14.884Z,73.23
2017-05-22T05:01:55.775Z,73.43
2017-05-22T05:02:36.669Z,73.17
2017-05-22T05:03:17.564Z,73.33
2017-05-22T05:03:58.460Z,73.61
2017-05-22T05:04:39.343Z,73.27
2017-05-22T05:05:20.341Z,73.27
2017-05-22T05:06:01.245Z,72.88
2017-05-22T05:06:42.121Z,72.79
2017-05-22T05:07:23.013Z,73.55
2017-05-22T05:08:03.918Z,72.79
2017-05-22T05:08:44.792Z,72.12
2017-05-22T05:09:25.688Z,72.41
2017-05-22T05:10:06.579Z,72.22
2017-05-22T05:10:48.225Z,72.6
2017-05-22T05:11:28.415Z,72.22
2017-05-22T05:12:09.327Z,72.22
2017-05-22T05:12:50.231Z,72.31
2017-05-22T05:13:31.119Z,71.45
2017-05-22T05:14:12.030Z,71.01
2017-05-22T05:14:52.932Z,70.59
2017-05-22T05:15:33.822Z,70.72
2017-05-22T05:16:14.727Z,70.53
2017-05-22T05:16:55.609Z,70.24
2017-05-22T05:17:36.502Z,69.86
2017-05-22T05:18:17.390Z,69.29
2017-05-22T05:18:58.259Z,68.71
2017-05-22T05:19:39.142Z,68.8
2017-05-22T05:20:20.030Z,67.85
2017-05-22T05:21:00.931Z,68.13
2017-05-22T05:21:41.879Z,67.76
2017-05-22T05:22:22.749Z,67.31
2017-05-22T05:23:03.638Z,66.89
2017-05-22T05:23:44.525Z,66.61
2017-05-22T05:24:25.414Z,66.54
2017-05-22T05:25:06.312Z,65.97
2017-05-22T05:25:47.205Z,66.16
2017-05-22T05:26:28.122Z,65.68
2017-05-22T05:27:08.987Z,65.23
2017-05-22T05:27:49.869Z,64.76
2017-05-22T05:28:30.767Z,65.42
2017-05-22T05:29:11.684Z,64.66
2017-05-22T05:31:30.588Z,62.84
2017-05-22T05:32:11.474Z,63.13
2017-05-22T05:32:52.367Z,62.55
2017-05-22T05:33:33.268Z,62.55
2017-05-22T05:34:14.164Z,62.74
2017-05-22T05:34:55.054Z,61.88
2017-05-22T05:35:35.942Z,61.98
2017-05-22T05:36:16.827Z,61.69
2017-05-22T05:36:57.717Z,62.07
2017-05-22T05:37:38.620Z,61.72
2017-05-22T05:38:19.508Z,61.43
2017-05-22T05:39:00.394Z,61.05
2017-05-22T05:39:41.335Z,60.96
2017-05-22T05:40:22.228Z,59.8
2017-05-22T05:41:03.113Z,59.33
2017-05-22T05:41:44.026Z,58.39
2017-05-22T05:42:24.924Z,57.53
2017-05-22T05:43:05.800Z,57.53
2017-05-22T05:43:46.688Z,56.09
2017-05-22T05:44:27.589Z,55.8
2017-05-22T05:45:08.491Z,55.52
2017-05-22T05:45:49.505Z,55.04
2017-05-22T05:46:30.336Z,55.4
2017-05-22T05:47:11.241Z,55.52
2017-05-22T05:47:52.125Z,55.62
2017-05-22T05:48:33.003Z,55.9
2017-05-22T05:49:13.917Z,55.62
2017-05-22T05:49:54.807Z,55.45
2017-05-22T05:50:35.705Z,55.62
2017-05-22T05:51:16.605Z,54.68
2017-05-22T05:51:57.489Z,54.88
2017-05-22T05:52:38.386Z,54.97
2017-05-22T05:53:19.277Z,54.39
2017-05-22T05:54:00.170Z,54.88
2017-05-22T05:54:41.065Z,54.49
2017-05-22T05:55:21.952Z,54.39
2017-05-22T05:56:02.849Z,55.35
2017-05-22T05:56:43.806Z,55.64
2017-05-22T05:57:24.694Z,55.55
2017-05-22T05:58:05.589Z,55.35
2017-05-22T05:58:46.478Z,55.16
2017-05-22T05:59:27.387Z,54.3
2017-05-22T06:00:08.286Z,54.39
2017-05-22T06:00:49.173Z,53.72
2017-05-22T06:01:30.057Z,53.24
2017-05-22T06:02:10.958Z,53.72
2017-05-22T06:02:51.850Z,53.44
2017-05-22T06:03:32.747Z,53.53
2017-05-22T06:04:13.647Z,53.72
2017-05-22T06:04:54.513Z,53.15
2017-05-22T06:05:35.410Z,53.44
2017-05-22T06:06:16.292Z,53.75
2017-05-22T06:06:57.211Z,53.17
2017-05-22T06:07:38.084Z,52.79
2017-05-22T06:08:19.002Z,52.6
2017-05-22T06:08:59.897Z,52.89
2017-05-22T06:09:40.788Z,52.22
2017-05-22T06:10:21.681Z,52.02
2017-05-22T06:11:02.626Z,52.79
2017-05-22T06:11:43.516Z,52.05
2017-05-22T06:13:43.267Z,51.28
2017-05-22T06:14:24.164Z,51.67
2017-05-22T06:15:05.076Z,50.9
2017-05-22T06:15:45.959Z,50.9
2017-05-22T06:16:26.858Z,50.8
2017-05-22T06:17:07.829Z,51.31
2017-05-22T06:17:48.744Z,51.21
2017-05-22T06:18:29.693Z,50.25
2017-05-22T06:19:10.614Z,49.51
2017-05-22T06:19:51.502Z,48.45
2017-05-22T06:20:32.389Z,47.99
2017-05-22T06:21:13.277Z,48.02
2017-05-22T06:21:54.169Z,46.11
2017-05-22T06:22:35.063Z,45.34
2017-05-22T06:23:15.951Z,44.89
2017-05-22T06:23:56.835Z,45.36
2017-05-22T06:24:37.727Z,44.69
2017-05-22T06:25:18.614Z,44.59
2017-05-22T06:25:59.515Z,43.85
2017-05-22T06:26:40.405Z,42.9
2017-05-22T06:27:21.306Z,42.13
2017-05-22T06:28:02.197Z,42.05
2017-05-22T06:28:43.114Z,41.09
2017-05-22T06:29:24.026Z,41.6
2017-05-22T06:30:04.913Z,41.3
2017-05-22T06:30:45.867Z,41.61
2017-05-22T06:31:26.717Z,39.32
2017-05-22T06:32:07.617Z,38.95
2017-05-22T06:32:48.535Z,38.46
2017-05-22T06:33:29.433Z,38.39
2017-05-22T06:34:10.353Z,37.82
2017-05-22T06:35:38.460Z,35.52
2017-05-22T06:36:19.351Z,34.75
2017-05-22T06:37:00.263Z,34.38
2017-05-22T06:37:41.162Z,33.97
2017-05-22T06:38:22.052Z,34.91
2017-05-22T06:39:02.958Z,37.67
2017-05-22T06:39:43.852Z,37.5
2017-05-22T06:40:24.761Z,37.96
2017-05-22T06:41:05.659Z,38.16
2017-05-22T06:41:46.597Z,37.98
2017-05-22T06:42:27.538Z,37.32
2017-05-22T06:43:08.437Z,37.71
2017-05-22T06:43:49.331Z,37.15
2017-05-22T06:44:30.227Z,35.5
2017-05-22T06:45:11.132Z,35.39
2017-05-22T06:45:52.028Z,37.67
2017-05-22T06:46:32.932Z,37.32
2017-05-22T06:47:13.833Z,35.21
2017-05-22T06:47:54.805Z,34.45
2017-05-22T06:48:35.700Z,34.36
2017-05-22T06:49:16.597Z,34.09
2017-05-22T06:49:57.502Z,33.81
2017-05-22T06:50:38.408Z,33.81
2017-05-22T06:51:19.314Z,33.52
2017-05-22T06:52:00.210Z,34.3
2017-05-22T06:52:41.120Z,33.25
2017-05-22T06:53:22.025Z,33.06
2017-05-22T06:54:02.987Z,32.49
2017-05-22T06:54:43.891Z,31.04
2017-05-22T06:55:24.803Z,30.94
2017-05-22T06:56:05.718Z,31.71
2017-05-22T06:56:46.623Z,31.13
2017-05-22T06:57:27.524Z,30.84
2017-05-22T06:58:08.436Z,30.54
2017-05-22T06:58:49.314Z,32.47
2017-05-22T06:59:30.226Z,32.18
2017-05-22T07:00:11.126Z,31.02
2017-05-22T07:00:52.026Z,31.31
2017-05-22T07:01:32.931Z,31.41
2017-05-22T07:02:13.841Z,32.09
2017-05-22T07:02:54.751Z,32.37
2017-05-22T07:03:35.717Z,31.21
2017-05-22T07:04:16.563Z,31.52
2017-05-22T07:04:57.480Z,31.62
2017-05-22T07:05:38.385Z,31.04
2017-05-22T07:06:19.295Z,30.35
2017-05-22T07:07:00.207Z,30.82
2017-05-22T07:07:41.188Z,31.01
2017-05-22T07:08:22.068Z,31.68
2017-05-22T07:09:03.002Z,32.36
2017-05-22T07:09:43.933Z,32.24
2017-05-22T07:10:24.823Z,32.06
2017-05-22T07:11:05.754Z,32.26
2017-05-22T07:11:46.640Z,32.26
2017-05-22T07:12:27.549Z,32.46
2017-05-22T07:13:08.458Z,32.26
2017-05-22T07:13:50.318Z,32.36
2017-05-22T07:14:31.211Z,32.26
2017-05-22T07:15:12.098Z,33.37
2017-05-22T07:15:52.988Z,34.89
2017-05-22T07:16:33.877Z,34.83
2017-05-22T07:17:14.818Z,32.89
2017-05-22T07:17:55.725Z,32.62
2017-05-22T07:18:36.631Z,32.51
2017-05-22T07:19:17.571Z,32.71
2017-05-22T07:19:58.500Z,33.09
2017-05-22T07:20:39.391Z,33.37
2017-05-22T07:21:20.314Z,33.57
2017-05-22T07:22:01.212Z,34.23
2017-05-22T07:22:42.136Z,34.05
2017-05-22T07:23:23.033Z,33.86
2017-05-22T07:24:51.532Z,33.6
2017-05-22T07:25:32.378Z,33.04
2017-05-22T07:26:13.296Z,32.75
2017-05-22T07:26:54.204Z,32.47
2017-05-22T07:27:35.108Z,32.2
2017-05-22T07:28:16.008Z,31.05
2017-05-22T07:28:56.925Z,31.5
2017-05-22T07:29:37.803Z,31.23
2017-05-22T07:30:18.681Z,30.55
2017-05-22T07:30:59.582Z,30.66
2017-05-22T07:31:40.492Z,30.47
2017-05-22T07:32:21.389Z,30.87
2017-05-22T07:33:02.389Z,30.37
2017-05-22T07:33:43.270Z,30.15
2017-05-22T07:34:24.142Z,31.62
2017-05-22T07:35:05.027Z,31.56
2017-05-22T07:35:45.941Z,33.36
2017-05-22T07:36:26.867Z,34.68
2017-05-22T07:37:07.810Z,35.64
2017-05-22T07:37:49.487Z,35.78
2017-05-22T07:38:30.388Z,34.81
2017-05-22T07:39:11.297Z,34.73
2017-05-22T07:39:52.213Z,33.95
2017-05-22T07:40:33.137Z,34.62
2017-05-22T07:41:14.047Z,36.77
2017-05-22T07:41:54.963Z,38.58
2017-05-22T07:42:35.855Z,38.23
2017-05-22T07:43:16.753Z,37.65
2017-05-22T07:43:57.664Z,36.53
2017-05-22T07:44:38.564Z,36.24
2017-05-22T07:45:19.473Z,35.99
2017-05-22T07:46:00.382Z,34.86
2017-05-22T07:46:41.296Z,33.81
2017-05-22T07:47:22.201Z,33.1
2017-05-22T07:48:03.101Z,32.64
2017-05-22T07:48:44.016Z,32.44
2017-05-22T07:49:24.903Z,33.18
2017-05-22T07:51:19.552Z,33.65
2017-05-22T07:52:00.431Z,34.41
2017-05-22T07:52:41.330Z,34.89
2017-05-22T07:53:22.231Z,34.34
2017-05-22T07:54:03.128Z,34.17
2017-05-22T07:54:44.008Z,33.18
2017-05-22T07:55:24.893Z,34.23
2017-05-22T07:56:05.806Z,34.6
2017-05-22T07:56:46.722Z,34.63
2017-05-22T07:57:27.639Z,33.8
2017-05-22T07:58:08.513Z,32.47
2017-05-22T07:58:50.365Z,32
2017-05-22T07:59:31.276Z,30.95
2017-05-22T08:01:04.637Z,30.79
2017-05-22T08:01:45.517Z,29.11
2017-05-22T08:02:26.413Z,28.63
2017-05-22T08:03:07.321Z,30.42
2017-05-22T08:03:48.231Z,30.65
2017-05-22T08:04:29.120Z,29.4
2017-05-22T08:05:10.013Z,30.52
2017-05-22T08:05:50.930Z,31.18
2017-05-22T08:06:31.839Z,33.01
2017-05-22T08:07:12.741Z,32.23
2017-05-22T08:07:53.635Z,32.18
2017-05-22T08:08:34.543Z,30.55
2017-05-22T08:09:15.452Z,30.95
2017-05-22T08:09:56.372Z,29.87
2017-05-22T08:10:37.336Z,31.09
2017-05-22T08:11:18.248Z,32.71
2017-05-22T08:11:59.160Z,32.46
2017-05-22T08:12:40.075Z,31.13
2017-05-22T08:13:20.997Z,30.77
2017-05-22T08:14:01.923Z,29.12
2017-05-22T08:14:42.835Z,29.02
2017-05-22T08:15:23.750Z,29.04
2017-05-22T08:16:04.646Z,28.08
2017-05-22T08:16:45.550Z,28.47
2017-05-22T08:17:26.439Z,27.42
2017-05-22T08:18:07.348Z,27.01
2017-05-22T08:18:48.258Z,27.32
2017-05-22T08:19:29.162Z,27.68
2017-05-22T08:20:10.122Z,28.05
2017-05-22T08:20:50.957Z,28.25
2017-05-22T08:21:31.863Z,28.02
2017-05-22T08:22:12.778Z,28.33
2017-05-22T08:22:53.675Z,27.76
2017-05-22T08:23:34.566Z,28.14
2017-05-22T08:24:15.455Z,28.34
2017-05-22T08:24:56.341Z,27.5
2017-05-22T08:26:50.126Z,26.25
2017-05-22T08:27:31.019Z,25.78
2017-05-22T08:28:11.931Z,26.65
2017-05-22T08:28:52.831Z,25.87
2017-05-22T08:29:33.768Z,26.48
2017-05-22T08:30:14.671Z,25.31
2017-05-22T08:30:55.562Z,24.06
2017-05-22T08:31:36.483Z,23.95
2017-05-22T08:32:17.395Z,23.96
2017-05-22T08:32:58.301Z,23.57
2017-05-22T08:34:31.866Z,23.77
2017-05-22T08:35:12.765Z,23.57
2017-05-22T08:35:53.672Z,23.57
2017-05-22T08:36:34.600Z,24.07
2017-05-22T08:37:15.549Z,23.99
2017-05-22T08:37:56.470Z,23.22
2017-05-22T08:38:37.416Z,23.43
2017-05-22T08:39:18.316Z,21.48
2017-05-22T08:39:59.216Z,23.05
2017-05-22T08:40:40.114Z,21.48
2017-05-22T08:41:21.025Z,22.46
2017-05-22T08:42:01.929Z,21.09
2017-05-22T08:42:42.842Z,20.51
2017-05-22T08:43:23.739Z,21.39
2017-05-22T08:44:04.644Z,20.5
2017-05-22T08:44:45.569Z,23.16
2017-05-22T08:45:26.575Z,23.3
2017-05-22T08:46:09.110Z,21.57
2017-05-22T08:46:50.019Z,21.19
2017-05-22T08:47:30.996Z,20.78
2017-05-22T08:48:11.892Z,24.29
2017-05-22T08:48:52.851Z,25.87
2017-05-22T08:49:33.791Z,25.24
2017-05-22T08:50:14.701Z,22.91
2017-05-22T08:50:55.592Z,22.56
2017-05-22T08:51:36.500Z,21.31
2017-05-22T08:52:17.400Z,20.59
2017-05-22T08:52:58.333Z,22.06
2017-05-22T08:53:39.235Z,21.68
2017-05-22T08:55:13.606Z,19.36
2017-05-22T08:55:54.509Z,19.67
2017-05-22T08:56:35.483Z,19.27
2017-05-22T08:57:16.385Z,19.16
2017-05-22T08:57:57.296Z,19.64
2017-05-22T08:58:38.201Z,19.54
2017-05-22T08:59:19.135Z,20.51
2017-05-22T09:00:00.058Z,20.79
2017-05-22T09:00:40.982Z,21.66
2017-05-22T09:01:21.894Z,21.36
2017-05-22T09:02:02.836Z,22.05
2017-05-22T09:02:43.760Z,21.86